sensor_id;sensor_type;location;lat;lon;timestamp;P1;durP1;ratioP1;P2;durP2;ratioP2
9807;SDS011;4943;52.550;13.462;2022-12-18T00:02:15;8.07;;;4.83;;
9807;SDS011;4943;52.550;13.462;2022-12-18T00:04:41;8.63;;;5.57;;
9807;SDS011;4943;52.550;13.462;2022-12-18T00:07:08;8.60;;;4.20;;
9807;SDS011;4943;52.550;13.462;2022-12-18T00:09:35;6.10;;;3.33;;
9807;SDS011;4943;52.550;13.462;2022-12-18T00:12:05;9.93;;;4.37;;
9807;SDS011;4943;52.550;13.462;2022-12-18T00:14:41;8.03;;;4.60;;
9807;SDS011;4943;52.550;13.462;2022-12-18T00:17:08;9.90;;;4.90;;
9807;SDS011;4943;52.550;13.462;2022-12-18T00:19:35;7.77;;;5.07;;
9807;SDS011;4943;52.550;13.462;2022-12-18T00:22:02;9.83;;;4.67;;
9807;SDS011;4943;52.550;13.462;2022-12-18T00:24:29;12.00;;;5.73;;
9807;SDS011;4943;52.550;13.462;2022-12-18T00:26:56;6.37;;;3.93;;
9807;SDS011;4943;52.550;13.462;2022-12-18T00:29:23;9.80;;;4.83;;
9807;SDS011;4943;52.550;13.462;2022-12-18T00:31:50;8.20;;;4.70;;
9807;SDS011;4943;52.550;13.462;2022-12-18T00:34:17;7.60;;;4.07;;
9807;SDS011;4943;52.550;13.462;2022-12-18T00:36:47;9.63;;;3.67;;
9807;SDS011;4943;52.550;13.462;2022-12-18T00:39:14;8.03;;;4.63;;
9807;SDS011;4943;52.550;13.462;2022-12-18T00:41:40;8.37;;;4.87;;
9807;SDS011;4943;52.550;13.462;2022-12-18T00:44:40;9.50;;;5.33;;
9807;SDS011;4943;52.550;13.462;2022-12-18T00:47:08;9.70;;;3.53;;
9807;SDS011;4943;52.550;13.462;2022-12-18T00:49:34;6.00;;;4.67;;
9807;SDS011;4943;52.550;13.462;2022-12-18T00:52:01;8.60;;;4.77;;
9807;SDS011;4943;52.550;13.462;2022-12-18T00:54:28;8.70;;;4.90;;
9807;SDS011;4943;52.550;13.462;2022-12-18T00:56:55;7.07;;;3.53;;
9807;SDS011;4943;52.550;13.462;2022-12-18T00:59:22;7.73;;;3.47;;
9807;SDS011;4943;52.550;13.462;2022-12-18T01:01:49;7.67;;;4.17;;
9807;SDS011;4943;52.550;13.462;2022-12-18T01:04:17;6.87;;;4.07;;
9807;SDS011;4943;52.550;13.462;2022-12-18T01:06:43;7.10;;;4.13;;
9807;SDS011;4943;52.550;13.462;2022-12-18T01:09:10;9.73;;;5.77;;
9807;SDS011;4943;52.550;13.462;2022-12-18T01:11:37;12.20;;;5.97;;
9807;SDS011;4943;52.550;13.462;2022-12-18T01:14:04;10.90;;;4.77;;
9807;SDS011;4943;52.550;13.462;2022-12-18T01:16:31;11.43;;;5.43;;
9807;SDS011;4943;52.550;13.462;2022-12-18T01:18:58;12.43;;;5.17;;
9807;SDS011;4943;52.550;13.462;2022-12-18T01:21:26;9.83;;;5.77;;
9807;SDS011;4943;52.550;13.462;2022-12-18T01:23:53;11.27;;;5.10;;
9807;SDS011;4943;52.550;13.462;2022-12-18T01:26:21;9.30;;;4.03;;
9807;SDS011;4943;52.550;13.462;2022-12-18T01:28:49;8.60;;;5.33;;
9807;SDS011;4943;52.550;13.462;2022-12-18T01:31:18;7.47;;;3.87;;
9807;SDS011;4943;52.550;13.462;2022-12-18T01:33:46;10.93;;;4.83;;
9807;SDS011;4943;52.550;13.462;2022-12-18T01:36:16;13.10;;;5.57;;
9807;SDS011;4943;52.550;13.462;2022-12-18T01:38:46;8.73;;;5.87;;
9807;SDS011;4943;52.550;13.462;2022-12-18T01:41:13;11.67;;;5.33;;
9807;SDS011;4943;52.550;13.462;2022-12-18T01:43:42;9.20;;;4.87;;
9807;SDS011;4943;52.550;13.462;2022-12-18T01:46:11;15.30;;;6.00;;
9807;SDS011;4943;52.550;13.462;2022-12-18T01:48:38;8.07;;;4.63;;
9807;SDS011;4943;52.550;13.462;2022-12-18T01:51:06;11.67;;;4.87;;
9807;SDS011;4943;52.550;13.462;2022-12-18T01:53:35;11.63;;;5.20;;
9807;SDS011;4943;52.550;13.462;2022-12-18T01:56:04;9.70;;;3.90;;
9807;SDS011;4943;52.550;13.462;2022-12-18T01:58:35;7.17;;;4.90;;
9807;SDS011;4943;52.550;13.462;2022-12-18T02:01:09;11.37;;;5.53;;
9807;SDS011;4943;52.550;13.462;2022-12-18T02:03:36;9.47;;;5.17;;
9807;SDS011;4943;52.550;13.462;2022-12-18T02:06:06;9.20;;;3.90;;
9807;SDS011;4943;52.550;13.462;2022-12-18T02:08:40;9.67;;;5.73;;
9807;SDS011;4943;52.550;13.462;2022-12-18T02:11:17;12.60;;;5.67;;
9807;SDS011;4943;52.550;13.462;2022-12-18T02:13:50;13.70;;;5.60;;
9807;SDS011;4943;52.550;13.462;2022-12-18T02:16:26;9.07;;;5.17;;
9807;SDS011;4943;52.550;13.462;2022-12-18T02:18:57;12.73;;;5.80;;
9807;SDS011;4943;52.550;13.462;2022-12-18T02:21:29;11.87;;;5.73;;
9807;SDS011;4943;52.550;13.462;2022-12-18T02:24:04;10.57;;;5.50;;
9807;SDS011;4943;52.550;13.462;2022-12-18T02:26:44;10.77;;;5.73;;
9807;SDS011;4943;52.550;13.462;2022-12-18T02:29:15;11.40;;;5.70;;
9807;SDS011;4943;52.550;13.462;2022-12-18T02:31:48;14.87;;;7.43;;
9807;SDS011;4943;52.550;13.462;2022-12-18T02:34:18;10.47;;;6.87;;
9807;SDS011;4943;52.550;13.462;2022-12-18T02:36:49;15.40;;;7.00;;
9807;SDS011;4943;52.550;13.462;2022-12-18T02:39:17;11.67;;;6.00;;
9807;SDS011;4943;52.550;13.462;2022-12-18T02:41:47;16.70;;;7.87;;
9807;SDS011;4943;52.550;13.462;2022-12-18T02:44:14;17.43;;;8.53;;
9807;SDS011;4943;52.550;13.462;2022-12-18T02:46:42;12.23;;;6.80;;
9807;SDS011;4943;52.550;13.462;2022-12-18T02:49:12;13.83;;;6.93;;
9807;SDS011;4943;52.550;13.462;2022-12-18T02:51:50;20.20;;;6.83;;
9807;SDS011;4943;52.550;13.462;2022-12-18T02:54:25;10.83;;;5.80;;
9807;SDS011;4943;52.550;13.462;2022-12-18T02:57:02;13.97;;;6.47;;
9807;SDS011;4943;52.550;13.462;2022-12-18T02:59:39;20.30;;;7.90;;
9807;SDS011;4943;52.550;13.462;2022-12-18T03:02:16;11.77;;;6.23;;
9807;SDS011;4943;52.550;13.462;2022-12-18T03:04:48;19.33;;;7.50;;
9807;SDS011;4943;52.550;13.462;2022-12-18T03:07:27;12.63;;;7.00;;
9807;SDS011;4943;52.550;13.462;2022-12-18T03:10:00;14.43;;;6.87;;
9807;SDS011;4943;52.550;13.462;2022-12-18T03:12:30;14.60;;;7.90;;
9807;SDS011;4943;52.550;13.462;2022-12-18T03:15:00;16.30;;;7.70;;
9807;SDS011;4943;52.550;13.462;2022-12-18T03:17:31;15.20;;;6.07;;
9807;SDS011;4943;52.550;13.462;2022-12-18T03:20:02;16.63;;;6.83;;
9807;SDS011;4943;52.550;13.462;2022-12-18T03:22:33;16.37;;;6.90;;
9807;SDS011;4943;52.550;13.462;2022-12-18T03:25:02;15.17;;;6.47;;
9807;SDS011;4943;52.550;13.462;2022-12-18T03:27:33;23.77;;;8.37;;
9807;SDS011;4943;52.550;13.462;2022-12-18T03:30:04;18.20;;;7.67;;
9807;SDS011;4943;52.550;13.462;2022-12-18T03:32:36;11.40;;;5.87;;
9807;SDS011;4943;52.550;13.462;2022-12-18T03:35:07;14.90;;;6.17;;
9807;SDS011;4943;52.550;13.462;2022-12-18T03:37:36;10.23;;;6.30;;
9807;SDS011;4943;52.550;13.462;2022-12-18T03:40:03;11.87;;;5.50;;
9807;SDS011;4943;52.550;13.462;2022-12-18T03:42:32;11.77;;;6.40;;
9807;SDS011;4943;52.550;13.462;2022-12-18T03:45:08;8.60;;;4.63;;
9807;SDS011;4943;52.550;13.462;2022-12-18T03:47:39;6.43;;;4.03;;
9807;SDS011;4943;52.550;13.462;2022-12-18T03:50:14;10.40;;;4.90;;
9807;SDS011;4943;52.550;13.462;2022-12-18T03:52:46;6.60;;;4.00;;
9807;SDS011;4943;52.550;13.462;2022-12-18T03:55:17;11.30;;;6.03;;
9807;SDS011;4943;52.550;13.462;2022-12-18T03:57:47;8.73;;;4.53;;
9807;SDS011;4943;52.550;13.462;2022-12-18T04:00:16;7.07;;;5.20;;
9807;SDS011;4943;52.550;13.462;2022-12-18T04:02:45;11.40;;;5.67;;
9807;SDS011;4943;52.550;13.462;2022-12-18T04:05:17;8.67;;;4.17;;
9807;SDS011;4943;52.550;13.462;2022-12-18T04:07:45;9.90;;;5.37;;
9807;SDS011;4943;52.550;13.462;2022-12-18T04:10:15;9.60;;;4.17;;
9807;SDS011;4943;52.550;13.462;2022-12-18T04:12:42;8.80;;;4.13;;
9807;SDS011;4943;52.550;13.462;2022-12-18T04:15:10;9.47;;;5.00;;
9807;SDS011;4943;52.550;13.462;2022-12-18T04:17:38;6.33;;;3.97;;
9807;SDS011;4943;52.550;13.462;2022-12-18T04:20:12;11.40;;;5.30;;
9807;SDS011;4943;52.550;13.462;2022-12-18T04:22:39;7.70;;;4.43;;
9807;SDS011;4943;52.550;13.462;2022-12-18T04:25:06;6.63;;;4.33;;
9807;SDS011;4943;52.550;13.462;2022-12-18T04:27:34;9.63;;;4.63;;
9807;SDS011;4943;52.550;13.462;2022-12-18T04:30:01;8.50;;;4.57;;
9807;SDS011;4943;52.550;13.462;2022-12-18T04:32:29;8.27;;;5.00;;
9807;SDS011;4943;52.550;13.462;2022-12-18T04:34:56;7.10;;;3.47;;
9807;SDS011;4943;52.550;13.462;2022-12-18T04:37:23;8.97;;;3.80;;
9807;SDS011;4943;52.550;13.462;2022-12-18T04:39:50;6.23;;;4.13;;
9807;SDS011;4943;52.550;13.462;2022-12-18T04:42:16;8.20;;;4.57;;
9807;SDS011;4943;52.550;13.462;2022-12-18T04:44:43;7.57;;;4.07;;
9807;SDS011;4943;52.550;13.462;2022-12-18T04:47:10;12.13;;;4.70;;
9807;SDS011;4943;52.550;13.462;2022-12-18T04:49:38;4.07;;;2.93;;
9807;SDS011;4943;52.550;13.462;2022-12-18T04:52:05;5.13;;;3.30;;
9807;SDS011;4943;52.550;13.462;2022-12-18T04:54:32;6.80;;;3.97;;
9807;SDS011;4943;52.550;13.462;2022-12-18T04:56:58;5.77;;;3.07;;
9807;SDS011;4943;52.550;13.462;2022-12-18T04:59:25;7.20;;;3.77;;
9807;SDS011;4943;52.550;13.462;2022-12-18T05:01:52;10.33;;;3.47;;
9807;SDS011;4943;52.550;13.462;2022-12-18T05:04:20;6.00;;;3.93;;
9807;SDS011;4943;52.550;13.462;2022-12-18T05:06:47;6.33;;;3.17;;
9807;SDS011;4943;52.550;13.462;2022-12-18T05:09:14;8.43;;;4.73;;
9807;SDS011;4943;52.550;13.462;2022-12-18T05:11:41;6.87;;;3.27;;
9807;SDS011;4943;52.550;13.462;2022-12-18T05:14:08;6.73;;;3.13;;
9807;SDS011;4943;52.550;13.462;2022-12-18T05:16:35;6.07;;;2.70;;
9807;SDS011;4943;52.550;13.462;2022-12-18T05:19:02;8.40;;;5.27;;
9807;SDS011;4943;52.550;13.462;2022-12-18T05:21:30;9.37;;;4.60;;
9807;SDS011;4943;52.550;13.462;2022-12-18T05:23:57;5.73;;;2.30;;
9807;SDS011;4943;52.550;13.462;2022-12-18T05:26:24;7.63;;;4.47;;
9807;SDS011;4943;52.550;13.462;2022-12-18T05:28:51;11.17;;;4.67;;
9807;SDS011;4943;52.550;13.462;2022-12-18T05:31:18;6.63;;;2.87;;
9807;SDS011;4943;52.550;13.462;2022-12-18T05:33:45;8.83;;;3.97;;
9807;SDS011;4943;52.550;13.462;2022-12-18T05:36:12;4.60;;;3.17;;
9807;SDS011;4943;52.550;13.462;2022-12-18T05:38:39;8.80;;;4.00;;
9807;SDS011;4943;52.550;13.462;2022-12-18T05:41:07;7.93;;;3.33;;
9807;SDS011;4943;52.550;13.462;2022-12-18T05:43:35;7.83;;;3.20;;
9807;SDS011;4943;52.550;13.462;2022-12-18T05:46:03;5.40;;;2.97;;
9807;SDS011;4943;52.550;13.462;2022-12-18T05:48:31;6.90;;;5.33;;
9807;SDS011;4943;52.550;13.462;2022-12-18T05:51:02;8.07;;;4.03;;
9807;SDS011;4943;52.550;13.462;2022-12-18T05:53:31;6.03;;;3.27;;
9807;SDS011;4943;52.550;13.462;2022-12-18T05:55:59;7.43;;;5.20;;
9807;SDS011;4943;52.550;13.462;2022-12-18T05:58:28;5.90;;;3.17;;
9807;SDS011;4943;52.550;13.462;2022-12-18T06:00:55;9.50;;;4.53;;
9807;SDS011;4943;52.550;13.462;2022-12-18T06:03:22;12.30;;;5.33;;
9807;SDS011;4943;52.550;13.462;2022-12-18T06:05:55;8.40;;;3.73;;
9807;SDS011;4943;52.550;13.462;2022-12-18T06:08:22;9.27;;;4.53;;
9807;SDS011;4943;52.550;13.462;2022-12-18T06:10:50;11.83;;;5.37;;
9807;SDS011;4943;52.550;13.462;2022-12-18T06:13:18;11.43;;;5.10;;
9807;SDS011;4943;52.550;13.462;2022-12-18T06:15:46;6.77;;;4.13;;
9807;SDS011;4943;52.550;13.462;2022-12-18T06:18:13;8.43;;;5.00;;
9807;SDS011;4943;52.550;13.462;2022-12-18T06:20:40;11.03;;;5.20;;
9807;SDS011;4943;52.550;13.462;2022-12-18T06:23:07;15.67;;;5.33;;
9807;SDS011;4943;52.550;13.462;2022-12-18T06:25:36;9.53;;;4.90;;
9807;SDS011;4943;52.550;13.462;2022-12-18T06:28:08;9.27;;;4.70;;
